Time;durP1;ratioP1;P1;durP2;ratioP2;P2;SDS_P1;SDS_P2;PMS_P1;PMS_P2;Temp;Humidity;BMP_temperature;BMP_pressure;BME280_temperature;BME280_humidity;BME280_pressure;Samples;Min_cycle;Max_cycle;Signal;HPM_P1;HPM_P2
2022/10/10 00:02:14;;;;;;;4.92;3.00;;;;;;;8.32;81.04;97370.25;1733640;82;20954;-83
2022/10/10 00:04:40;;;;;;;4.97;2.90;;;;;;;8.30;81.19;97371.69;1720018;82;20973;-84
2022/10/10 00:07:05;;;;;;;5.10;3.60;;;;;;;8.30;81.38;97371.69;1709006;83;21353;-84
2022/10/10 00:09:31;;;;;;;8.43;3.95;;;;;;;8.24;80.66;97364.48;1723837;82;20959;-83
2022/10/10 00:11:57;;;;;;;5.78;3.30;;;;;;;8.21;80.36;97353.12;1733293;82;20928;-83
2022/10/10 00:14:22;;;;;;;6.15;3.80;;;;;;;8.19;80.30;97361.98;1738334;82;21344;-83
2022/10/10 00:16:48;;;;;;;11.48;5.87;;;;;;;8.15;79.81;97356.29;1726048;82;20909;-84
2022/10/10 00:19:14;;;;;;;6.05;3.87;;;;;;;8.12;79.60;97356.06;1728325;81;21425;-84
2022/10/10 00:21:39;;;;;;;5.62;3.60;;;;;;;8.08;79.55;97356.02;1694979;84;20974;-84
2022/10/10 00:24:05;;;;;;;5.92;3.75;;;;;;;8.06;80.27;97348.06;1736332;82;21013;-84
2022/10/10 00:26:31;;;;;;;6.50;3.92;;;;;;;8.01;80.10;97352.39;1756096;82;20931;-83
2022/10/10 00:28:57;;;;;;;5.58;4.10;;;;;;;8.00;79.59;97344.77;1722448;82;20939;-84
2022/10/10 00:31:22;;;;;;;6.55;3.65;;;;;;;7.99;79.32;97336.19;1689233;85;20990;-83
2022/10/10 00:33:48;;;;;;;4.67;3.47;;;;;;;7.99;79.62;97335.38;1691282;83;20987;-84
2022/10/10 00:36:14;;;;;;;4.92;3.40;;;;;;;8.02;80.23;97342.84;1698086;83;21313;-84
2022/10/10 00:38:39;;;;;;;4.70;3.52;;;;;;;7.99;80.60;97340.07;1740546;81;20940;-84
2022/10/10 00:41:06;;;;;;;5.67;3.65;;;;;;;7.93;80.20;97337.22;1751933;81;21130;-83
2022/10/10 00:43:32;;;;;;;7.17;3.35;;;;;;;7.94;79.84;97336.25;1745574;81;20962;-83
2022/10/10 00:45:58;;;;;;;6.33;3.75;;;;;;;7.96;80.66;97342.10;1727808;82;21010;-84
2022/10/10 00:48:35;;;;;;;5.58;3.58;;;;;;;7.95;80.89;97339.99;1740532;81;21267;-84
2022/10/10 00:51:07;;;;;;;5.35;3.20;;;;;;;7.93;80.87;97343.69;1740730;81;20972;-84
2022/10/10 00:53:49;;;;;;;6.05;3.45;;;;;;;7.86;80.03;97343.92;1740211;82;21355;-83
2022/10/10 00:56:18;;;;;;;5.08;3.72;;;;;;;7.85;81.04;97341.00;1735413;81;21395;-84
2022/10/10 00:58:47;;;;;;;3.98;3.10;;;;;;;7.82;80.82;97339.04;1743326;82;21353;-84
2022/10/10 01:01:13;;;;;;;5.50;3.55;;;;;;;7.81;81.01;97335.30;1715639;82;20998;-84
2022/10/10 01:03:39;;;;;;;4.97;3.40;;;;;;;7.80;81.23;97341.40;1713454;83;21019;-83
2022/10/10 01:06:05;;;;;;;6.10;3.70;;;;;;;7.78;81.37;97339.44;1717889;82;21416;-84
2022/10/10 01:08:31;;;;;;;5.30;3.65;;;;;;;7.73;81.50;97337.28;1740486;81;21028;-84
2022/10/10 01:11:34;;;;;;;4.75;3.37;;;;;;;7.71;81.56;97336.61;1717757;82;21019;-84
2022/10/10 01:14:27;;;;;;;4.70;3.60;;;;;;;7.67;81.63;97330.09;1717942;82;20998;-83
2022/10/10 01:17:17;;;;;;;4.00;3.40;;;;;;;7.61;81.84;97329.34;1729162;81;21006;-83
2022/10/10 01:20:15;;;;;;;6.83;4.22;;;;;;;7.57;82.03;97325.41;1746558;80;21073;-83
2022/10/10 01:22:59;;;;;;;4.47;3.77;;;;;;;7.53;82.09;97320.19;1717518;83;21073;-84
2022/10/10 01:25:45;;;;;;;7.95;3.92;;;;;;;7.48;82.19;97322.35;1693335;83;20959;-83
2022/10/10 01:28:51;;;;;;;5.67;4.72;;;;;;;7.41;82.22;97320.00;1690194;83;21387;-84
2022/10/10 01:31:21;;;;;;;5.72;4.00;;;;;;;7.33;82.77;97321.18;1714495;82;20945;-84
2022/10/10 01:34:14;;;;;;;5.05;3.62;;;;;;;7.30;83.29;97319.66;1699488;82;21443;-83
2022/10/10 01:36:55;;;;;;;3.30;3.00;;;;;;;7.19;83.75;97305.14;1731390;82;20932;-84
2022/10/10 01:39:32;;;;;;;5.15;3.87;;;;;;;7.25;83.73;97314.58;1729030;82;21649;-84
2022/10/10 01:42:09;;;;;;;5.33;3.33;;;;;;;7.21;83.65;97315.34;1716408;82;20952;-84
2022/10/10 01:44:35;;;;;;;4.60;4.10;;;;;;;7.18;83.79;97320.31;1715663;82;20928;-84
2022/10/10 01:47:00;;;;;;;5.00;3.30;;;;;;;7.17;84.08;97319.97;1730213;82;22002;-83
2022/10/10 01:49:29;;;;;;;5.33;3.40;;;;;;;7.15;84.00;97319.74;1715564;82;21008;-84
2022/10/10 01:52:18;;;;;;;4.85;3.52;;;;;;;7.13;84.15;97318.59;1720170;83;20967;-84
2022/10/10 01:55:14;;;;;;;4.60;3.50;;;;;;;7.12;84.08;97318.73;1682501;83;21034;-83
2022/10/10 01:57:48;;;;;;;5.80;3.42;;;;;;;7.09;84.40;97317.24;1730198;82;20980;-83
2022/10/10 02:00:15;;;;;;;4.33;3.50;;;;;;;7.08;84.61;97310.92;1714344;83;20979;-84
2022/10/10 02:02:59;;;;;;;3.92;3.52;;;;;;;7.05;84.73;97305.55;1702293;83;21060;-84
2022/10/10 02:05:49;;;;;;;4.87;3.65;;;;;;;7.03;84.79;97307.46;1669914;84;21074;-84
2022/10/10 02:08:39;;;;;;;4.83;3.87;;;;;;;7.02;85.06;97303.73;1680150;85;21400;-83
2022/10/10 02:11:08;;;;;;;4.97;3.75;;;;;;;7.01;85.31;97305.50;1654501;85;21033;-83
2022/10/10 02:13:47;;;;;;;4.15;3.60;;;;;;;6.99;85.54;97301.39;1738497;82;20974;-83
2022/10/10 02:16:23;;;;;;;4.42;3.60;;;;;;;6.95;85.78;97300.86;1706138;83;20962;-84
2022/10/10 02:18:49;;;;;;;3.50;3.20;;;;;;;6.88;86.14;97299.30;1687581;84;21612;-83
2022/10/10 02:21:16;;;;;;;6.42;3.85;;;;;;;6.83;86.16;97298.91;1707436;83;21097;-84
2022/10/10 02:23:45;;;;;;;3.67;3.37;;;;;;;6.81;86.57;97303.37;1707501;83;21085;-83
2022/10/10 02:26:12;;;;;;;6.37;3.95;;;;;;;6.84;86.92;97301.83;1711161;83;20994;-83
2022/10/10 02:29:01;;;;;;;5.03;3.50;;;;;;;6.87;87.02;97302.03;1719297;83;21090;-84
2022/10/10 02:31:40;;;;;;;5.45;4.12;;;;;;;6.87;87.11;97300.26;1687477;84;20976;-84
2022/10/10 02:34:16;;;;;;;4.72;4.22;;;;;;;6.86;87.37;97289.59;1687206;84;21335;-84
2022/10/10 02:36:44;;;;;;;4.35;3.40;;;;;;;6.87;87.34;97291.70;1700244;84;21026;-84
2022/10/10 02:39:09;;;;;;;4.47;3.72;;;;;;;6.84;87.25;97283.74;1687447;83;20971;-83
2022/10/10 02:41:35;;;;;;;5.42;3.95;;;;;;;6.85;87.80;97276.81;1692912;83;20945;-84
2022/10/10 02:44:01;;;;;;;4.58;4.03;;;;;;;6.86;87.89;97290.06;1724235;83;20939;-83
2022/10/10 02:46:27;;;;;;;8.53;3.85;;;;;;;6.85;87.91;97285.85;1730002;83;21011;-83
2022/10/10 02:48:52;;;;;;;4.87;4.05;;;;;;;6.83;88.00;97283.41;1694266;84;21010;-83
2022/10/10 02:51:18;;;;;;;4.53;4.00;;;;;;;6.84;88.30;97286.33;1714827;83;21002;-84
2022/10/10 02:53:44;;;;;;;6.65;4.12;;;;;;;6.84;88.50;97276.00;1709345;82;20971;-83
2022/10/10 02:56:10;;;;;;;5.17;3.58;;;;;;;6.85;88.45;97285.85;1706357;83;21000;-84
2022/10/10 02:58:35;;;;;;;5.47;4.05;;;;;;;6.87;88.46;97282.66;1701319;83;21042;-83
2022/10/10 03:01:01;;;;;;;4.83;4.22;;;;;;;6.87;88.35;97278.30;1707629;84;20990;-83
2022/10/10 03:03:27;;;;;;;4.80;4.30;;;;;;;6.87;88.38;97282.17;1687605;84;21419;-83
2022/10/10 03:05:53;;;;;;;5.17;3.83;;;;;;;6.88;88.67;97276.53;1694690;83;20988;-84
2022/10/10 03:08:18;;;;;;;6.30;4.10;;;;;;;6.86;88.58;97281.02;1702668;84;21306;-84
2022/10/10 03:10:59;;;;;;;4.90;4.12;;;;;;;6.85;88.66;97274.23;1711133;83;21040;-84
2022/10/10 03:13:25;;;;;;;4.97;4.45;;;;;;;6.83;88.64;97272.23;1703529;83;21055;-84
2022/10/10 03:15:51;;;;;;;6.58;4.97;;;;;;;6.82;88.76;97271.89;1705106;83;20944;-84
2022/10/10 03:18:16;;;;;;;5.28;4.80;;;;;;;6.79;88.98;97274.75;1716275;83;21003;-84
2022/10/10 03:20:48;;;;;;;5.08;4.58;;;;;;;6.76;89.18;97271.16;1725137;81;21100;-84
2022/10/10 03:23:14;;;;;;;4.47;4.08;;;;;;;6.77;89.42;97265.03;1748913;81;21005;-84
2022/10/10 03:25:42;;;;;;;5.50;4.60;;;;;;;6.77;89.54;97265.84;1728216;82;20941;-84
2022/10/10 03:28:10;;;;;;;4.35;3.92;;;;;;;6.79;90.07;97255.38;1741301;82;21448;-84
2022/10/10 03:30:36;;;;;;;5.70;4.87;;;;;;;6.78;90.02;97253.27;1719830;83;20959;-83
2022/10/10 03:33:02;;;;;;;6.55;5.15;;;;;;;6.78;90.21;97252.45;1748653;81;20961;-84
2022/10/10 03:35:27;;;;;;;6.12;4.95;;;;;;;6.77;90.29;97249.06;1749318;81;20923;-83
2022/10/10 03:37:53;;;;;;;6.17;5.47;;;;;;;6.79;90.58;97257.48;1723183;82;21005;-83
2022/10/10 03:40:19;;;;;;;9.93;5.80;;;;;;;6.78;90.08;97248.11;1745796;82;20986;-84
2022/10/10 03:42:44;;;;;;;8.80;5.37;;;;;;;6.78;89.51;97247.29;1746032;82;21001;-83
2022/10/10 03:45:10;;;;;;;5.87;5.03;;;;;;;6.73;89.31;97239.96;1721008;82;21377;-84
2022/10/10 03:47:36;;;;;;;6.65;5.78;;;;;;;6.72;89.55;97255.59;1761995;81;20923;-83
2022/10/10 03:50:02;;;;;;;9.35;5.50;;;;;;;6.69;89.54;97249.42;1726199;82;21054;-83
2022/10/10 03:52:27;;;;;;;7.28;5.20;;;;;;;6.65;89.05;97249.33;1747512;82;20939;-83
2022/10/10 03:54:53;;;;;;;5.95;5.08;;;;;;;6.65;89.47;97249.33;1711841;82;21001;-84
2022/10/10 03:57:19;;;;;;;10.40;5.95;;;;;;;6.66;89.57;97250.48;1716807;82;21296;-84
2022/10/10 03:59:44;;;;;;;6.42;5.12;;;;;;;6.66;89.19;97250.48;1687419;84;21316;-83
2022/10/10 04:02:10;;;;;;;7.65;5.30;;;;;;;6.63;89.42;97246.88;1688501;84;20982;-83
2022/10/10 04:04:36;;;;;;;6.30;4.65;;;;;;;6.59;88.76;97243.77;1691277;83;21358;-83
2022/10/10 04:07:01;;;;;;;5.50;4.97;;;;;;;6.61;89.59;97239.27;1746239;82;20951;-83
2022/10/10 04:09:27;;;;;;;5.12;4.60;;;;;;;6.60;89.72;97242.00;1697101;83;21255;-83
2022/10/10 04:11:53;;;;;;;5.75;5.12;;;;;;;6.61;90.04;97241.86;1727470;82;20966;-83
2022/10/10 04:14:19;;;;;;;6.37;4.67;;;;;;;6.61;89.85;97250.89;1717087;82;21400;-83
2022/10/10 04:16:44;;;;;;;8.25;5.00;;;;;;;6.60;89.94;97248.45;1717055;83;21030;-83
2022/10/10 04:19:10;;;;;;;5.45;4.95;;;;;;;6.59;89.76;97250.70;1707690;83;20957;-83
2022/10/10 04:21:36;;;;;;;7.53;5.22;;;;;;;6.59;89.80;97242.95;1700700;83;21007;-83
2022/10/10 04:24:04;;;;;;;6.58;5.20;;;;;;;6.57;90.09;97239.22;1689976;83;21054;-83
2022/10/10 04:26:29;;;;;;;6.83;4.97;;;;;;;6.54;89.81;97234.33;1715499;83;20974;-88
2022/10/10 04:28:55;;;;;;;6.17;4.95;;;;;;;6.53;89.98;97239.63;1701747;83;21013;-88
2022/10/10 04:31:21;;;;;;;6.50;5.15;;;;;;;6.52;90.46;97234.94;1711224;83;21053;-88
2022/10/10 04:33:46;;;;;;;6.92;5.55;;;;;;;6.51;90.18;97244.12;1690464;84;21002;-88
2022/10/10 04:36:12;;;;;;;7.47;5.92;;;;;;;6.51;90.40;97238.48;1718299;83;21339;-88
2022/10/10 04:38:38;;;;;;;6.20;4.83;;;;;;;6.53;90.34;97243.50;1660681;85;20942;-88
2022/10/10 04:41:04;;;;;;;6.22;5.33;;;;;;;6.54;90.37;97242.08;1661439;86;21425;-88
2022/10/10 04:43:30;;;;;;;8.65;4.83;;;;;;;6.54;90.75;97239.97;1703632;83;20975;-88
2022/10/10 04:45:57;;;;;;;5.72;5.03;;;;;;;6.54;90.92;97242.08;1698016;84;21026;-88
2022/10/10 04:48:23;;;;;;;6.15;5.55;;;;;;;6.55;91.04;97237.72;1701606;83;20984;-88
2022/10/10 04:50:52;;;;;;;5.90;5.10;;;;;;;6.54;91.60;97239.48;1694801;84;21120;-88
2022/10/10 04:53:17;;;;;;;7.33;5.40;;;;;;;6.57;92.28;97231.95;1695939;83;21066;-88
2022/10/10 04:55:43;;;;;;;6.47;5.17;;;;;;;6.60;93.27;97229.90;1690075;83;20981;-87
2022/10/10 04:58:09;;;;;;;8.58;6.55;;;;;;;6.67;94.39;97226.77;1703508;83;21307;-88
2022/10/10 05:00:34;;;;;;;6.47;5.87;;;;;;;6.76;94.14;97224.19;1709110;83;20990;-87
2022/10/10 05:03:00;;;;;;;8.20;6.62;;;;;;;6.95;94.39;97235.45;1690312;83;21439;-87
2022/10/10 05:05:27;;;;;;;7.67;6.00;;;;;;;7.12;94.16;97229.09;1703664;83;20998;-86
2022/10/10 05:07:53;;;;;;;7.00;6.05;;;;;;;7.33;94.76;97228.11;1693356;83;21349;-85
2022/10/10 05:10:19;;;;;;;7.42;6.22;;;;;;;7.54;94.37;97222.25;1701616;83;20963;-86
2022/10/10 05:12:44;;;;;;;7.05;6.10;;;;;;;7.72;93.73;97219.23;1701711;83;20987;-86
2022/10/10 05:15:10;;;;;;;6.67;6.08;;;;;;;7.92;93.13;97225.61;1700660;83;20970;-86
2022/10/10 05:17:36;;;;;;;6.20;5.60;;;;;;;8.11;92.79;97219.02;1683548;83;20964;-86
2022/10/10 05:20:02;;;;;;;8.78;6.28;;;;;;;8.26;92.14;97216.27;1729082;81;21377;-86
2022/10/10 05:22:28;;;;;;;6.10;5.03;;;;;;;8.39;91.82;97217.23;1746509;82;21085;-86
2022/10/10 05:24:55;;;;;;;8.00;6.12;;;;;;;8.46;91.76;97215.70;1719477;82;21098;-86
2022/10/10 05:27:21;;;;;;;6.28;5.67;;;;;;;8.52;91.18;97215.10;1734647;82;21389;-86
2022/10/10 05:29:47;;;;;;;6.72;5.35;;;;;;;8.62;90.34;97218.89;1741516;82;21009;-84
2022/10/10 05:32:12;;;;;;;7.50;5.15;;;;;;;8.73;89.98;97218.67;1749571;82;21329;-86
2022/10/10 05:34:38;;;;;;;6.70;6.10;;;;;;;8.82;89.65;97215.67;1728959;82;20974;-86
2022/10/10 05:37:04;;;;;;;5.75;5.12;;;;;;;8.89;89.40;97218.80;1719724;82;21084;-86
2022/10/10 05:39:30;;;;;;;7.90;5.80;;;;;;;8.97;89.14;97216.77;1732349;81;20970;-85
2022/10/10 05:41:55;;;;;;;5.85;5.25;;;;;;;9.01;88.79;97207.72;1720265;82;20942;-86
2022/10/10 05:44:21;;;;;;;6.37;5.42;;;;;;;9.03;88.73;97212.27;1719990;82;20977;-85
2022/10/10 05:46:47;;;;;;;6.75;5.45;;;;;;;9.07;88.54;97216.17;1743421;82;21377;-86
2022/10/10 05:49:12;;;;;;;6.42;5.75;;;;;;;9.15;88.02;97216.73;1730439;82;20966;-87
2022/10/10 05:51:38;;;;;;;7.42;5.03;;;;;;;9.24;87.79;97215.80;1736039;81;20951;-86
2022/10/10 05:54:04;;;;;;;5.45;4.95;;;;;;;9.35;87.55;97214.73;1756072;81;20994;-86
2022/10/10 05:56:30;;;;;;;7.05;5.08;;;;;;;9.42;87.56;97217.84;1720446;83;20986;-86
2022/10/10 05:58:55;;;;;;;6.12;5.15;;;;;;;9.44;87.10;97213.34;1723501;82;21356;-86
2022/10/10 06:01:21;;;;;;;5.85;5.25;;;;;;;9.47;87.19;97213.52;1748929;82;21066;-85
2022/10/10 06:03:51;;;;;;;5.80;4.97;;;;;;;9.49;86.91;97215.47;1744785;82;20946;-87
2022/10/10 06:06:15;;;;;;;7.20;5.37;;;;;;;9.54;86.43;97215.31;1737916;82;21621;-86
2022/10/10 06:08:40;;;;;;;7.05;5.15;;;;;;;9.59;86.86;97214.36;1719911;83;21049;-86
2022/10/10 06:11:09;;;;;;;7.75;5.10;;;;;;;9.62;86.63;97220.56;1741095;82;21428;-86
2022/10/10 06:13:37;;;;;;;6.22;5.58;;;;;;;9.66;86.42;97216.36;1755422;82;21015;-86
2022/10/10 06:16:03;;;;;;;7.20;5.28;;;;;;;9.67;86.64;97217.50;1728881;82;21350;-87
2022/10/10 06:18:28;;;;;;;7.47;5.20;;;;;;;9.69;86.13;97219.93;1747397;82;20950;-86
2022/10/10 06:20:54;;;;;;;6.40;5.12;;;;;;;9.72;86.29;97219.61;1734633;82;21358;-87
2022/10/10 06:23:20;;;;;;;6.70;5.65;;;;;;;9.75;85.54;97221.89;1736940;81;21375;-87
2022/10/10 06:25:50;;;;;;;6.97;5.05;;;;;;;9.81;84.57;97218.20;1716865;82;21003;-86
2022/10/10 06:28:15;;;;;;;5.53;4.97;;;;;;;9.94;84.73;97219.07;1706273;83;21017;-86
2022/10/10 06:30:42;;;;;;;5.92;4.87;;;;;;;10.03;83.87;97225.91;1717168;83;20966;-85
2022/10/10 06:33:08;;;;;;;5.42;4.92;;;;;;;10.13;83.45;97216.69;1720798;82;21029;-86
2022/10/10 06:35:41;;;;;;;5.95;4.97;;;;;;;10.20;82.38;97220.27;1732271;82;20980;-86
2022/10/10 06:38:08;;;;;;;5.85;5.08;;;;;;;10.29;82.00;97226.34;1740313;81;21039;-86
2022/10/10 06:40:33;;;;;;;5.60;4.97;;;;;;;10.33;82.47;97225.05;1727084;82;20934;-86
2022/10/10 06:42:59;;;;;;;5.03;4.55;;;;;;;10.36;82.13;97226.83;1741502;82;21307;-87
2022/10/10 06:45:25;;;;;;;5.47;4.53;;;;;;;10.40;81.99;97231.22;1721727;82;20985;-86
2022/10/10 06:47:50;;;;;;;5.00;4.50;;;;;;;10.44;82.21;97228.65;1737338;81;21288;-86
2022/10/10 06:50:16;;;;;;;7.25;5.28;;;;;;;10.45;81.87;97230.27;1716754;82;20960;-87
2022/10/10 06:52:42;;;;;;;5.30;4.72;;;;;;;10.49;81.19;97235.47;1724254;82;21060;-86
2022/10/10 06:55:08;;;;;;;5.78;3.87;;;;;;;10.54;81.12;97233.19;1726196;82;20991;-86
2022/10/10 06:57:34;;;;;;;4.72;4.08;;;;;;;10.60;80.27;97231.27;1731893;82;20994;-87
2022/10/10 06:59:59;;;;;;;6.67;5.12;;;;;;;10.66;80.39;97227.20;1715981;82;21313;-86
2022/10/10 07:02:26;;;;;;;5.67;4.42;;;;;;;10.74;80.28;97228.03;1730313;82;20992;-86
2022/10/10 07:04:51;;;;;;;5.70;4.30;;;;;;;10.80;79.67;97229.97;1749013;81;20993;-86
2022/10/10 07:07:17;;;;;;;6.35;4.65;;;;;;;10.87;79.92;97231.91;1724779;82;20967;-87
2022/10/10 07:09:43;;;;;;;4.58;4.17;;;;;;;10.90;79.78;97227.22;1760770;81;20950;-86
2022/10/10 07:12:09;;;;;;;5.85;4.35;;;;;;;10.94;79.21;97231.12;1745349;82;21389;-85
2022/10/10 07:14:35;;;;;;;5.17;4.33;;;;;;;11.00;79.08;97234.35;1743395;82;21021;-87
2022/10/10 07:17:00;;;;;;;5.33;4.60;;;;;;;11.05;78.82;97227.35;1730003;82;21396;-86
2022/10/10 07:19:27;;;;;;;5.45;4.85;;;;;;;11.09;78.10;97228.67;1716969;82;21141;-86
2022/10/10 07:21:53;;;;;;;4.58;4.17;;;;;;;11.15;78.54;97224.10;1699845;83;21469;-87
2022/10/10 07:24:18;;;;;;;4.55;3.87;;;;;;;11.18;78.91;97229.46;1724087;82;20983;-86
2022/10/10 07:26:44;;;;;;;5.05;4.55;;;;;;;11.18;79.41;97222.47;1741931;82;21013;-86
2022/10/10 07:29:10;;;;;;;4.97;4.47;;;;;;;11.18;80.30;97232.88;1728639;82;20943;-86
2022/10/10 07:31:35;;;;;;;8.15;4.67;;;;;;;11.16;79.80;97229.63;1718348;82;21018;-86
2022/10/10 07:34:01;;;;;;;6.50;4.75;;;;;;;11.16;81.53;97224.91;1741003;82;21352;-86
2022/10/10 07:36:27;;;;;;;5.42;4.33;;;;;;;11.15;81.95;97224.59;1707790;83;21324;-87
2022/10/10 07:38:53;;;;;;;6.37;4.40;;;;;;;11.13;81.87;97224.77;1731007;82;21026;-87
2022/10/10 07:41:19;;;;;;;6.83;4.35;;;;;;;11.12;81.42;97229.64;1743827;82;21066;-86
2022/10/10 07:43:45;;;;;;;5.20;4.65;;;;;;;11.13;79.94;97227.36;1735966;82;21069;-86
2022/10/10 07:46:18;;;;;;;6.70;4.62;;;;;;;11.17;80.51;97224.75;1716184;83;21341;-87
2022/10/10 07:48:44;;;;;;;5.72;4.05;;;;;;;11.22;79.73;97225.05;1734047;81;20984;-86
2022/10/10 07:51:10;;;;;;;4.95;4.12;;;;;;;11.27;79.61;97220.68;1752336;81;21429;-87
2022/10/10 07:53:36;;;;;;;4.47;4.08;;;;;;;11.33;79.48;97222.61;1735219;82;20962;-86
2022/10/10 07:56:04;;;;;;;5.12;4.42;;;;;;;11.39;78.12;97225.38;1727334;83;20932;-86
2022/10/10 07:58:31;;;;;;;4.33;3.67;;;;;;;11.47;78.10;97224.53;1743984;82;20989;-86
2022/10/10 08:01:03;;;;;;;4.87;3.80;;;;;;;11.54;77.92;97221.58;1695102;83;20966;-86
2022/10/10 08:03:29;;;;;;;4.30;3.90;;;;;;;11.64;77.73;97221.39;1740812;81;21343;-87
2022/10/10 08:05:55;;;;;;;7.08;4.37;;;;;;;11.72;77.43;97230.50;1738352;82;20951;-86
2022/10/10 08:08:21;;;;;;;6.33;3.87;;;;;;;11.77;77.77;97229.49;1717549;82;21036;-86
2022/10/10 08:10:47;;;;;;;6.30;3.75;;;;;;;11.82;77.98;97225.92;1738448;82;21085;-87
2022/10/10 08:13:12;;;;;;;4.65;4.00;;;;;;;11.85;77.67;97220.86;1717836;82;21328;-86
2022/10/10 08:15:39;;;;;;;5.08;4.40;;;;;;;11.88;78.17;97221.36;1739352;82;20967;-87
2022/10/10 08:18:05;;;;;;;5.05;3.95;;;;;;;11.90;77.28;97223.30;1742987;82;21049;-87
2022/10/10 08:20:31;;;;;;;6.17;4.42;;;;;;;11.95;78.34;97218.87;1697799;83;21062;-86
2022/10/10 08:22:57;;;;;;;5.87;4.03;;;;;;;11.98;78.48;97223.25;1731400;82;20979;-87
2022/10/10 08:25:23;;;;;;;4.67;4.28;;;;;;;12.01;78.11;97220.30;1716763;83;21387;-86
2022/10/10 08:27:49;;;;;;;4.67;4.28;;;;;;;12.07;78.44;97216.22;1717310;82;20973;-87
2022/10/10 08:30:14;;;;;;;4.67;4.05;;;;;;;12.12;78.51;97206.58;1688421;85;21049;-84
2022/10/10 08:32:40;;;;;;;6.10;4.45;;;;;;;12.15;79.89;97201.83;1735372;81;20991;-84
2022/10/10 08:35:06;;;;;;;4.85;3.67;;;;;;;12.16;79.59;97206.55;1715902;82;21029;-84
2022/10/10 08:37:32;;;;;;;5.05;4.20;;;;;;;12.19;78.12;97200.99;1724878;83;21011;-84
2022/10/10 08:39:58;;;;;;;7.25;3.92;;;;;;;12.26;80.41;97204.06;1735871;82;21010;-84
2022/10/10 08:42:31;;;;;;;4.40;4.00;;;;;;;12.27;79.88;97199.66;1723892;82;21002;-84
2022/10/10 08:45:03;;;;;;;4.67;4.05;;;;;;;12.33;79.84;97197.66;1745961;81;21037;-85
2022/10/10 08:47:42;;;;;;;7.00;4.83;;;;;;;12.37;80.00;97194.23;1733389;81;21043;-84
2022/10/10 08:50:38;;;;;;;4.87;4.37;;;;;;;12.36;80.25;97196.00;1746098;82;21022;-84
2022/10/10 08:53:13;;;;;;;4.65;3.95;;;;;;;12.41;80.87;97193.70;1719414;81;21411;-84
2022/10/10 08:55:42;;;;;;;4.87;3.95;;;;;;;12.46;80.50;97190.57;1732654;82;21457;-84
2022/10/10 08:58:20;;;;;;;5.12;3.85;;;;;;;12.53;78.05;97191.52;1739811;82;21333;-84
2022/10/10 09:00:58;;;;;;;4.62;3.77;;;;;;;12.63;77.53;97195.50;1716465;82;20970;-84
2022/10/10 09:03:44;;;;;;;4.35;3.87;;;;;;;12.75;77.33;97193.78;1719250;82;21016;-84
2022/10/10 09:06:27;;;;;;;4.58;4.08;;;;;;;12.88;74.88;97186.19;1726372;81;21015;-84
2022/10/10 09:09:41;;;;;;;5.17;4.20;;;;;;;13.04;74.45;97189.14;1739233;81;20949;-84
2022/10/10 09:12:46;;;;;;;5.80;4.08;;;;;;;13.18;73.75;97189.20;1735326;81;21066;-84
2022/10/10 09:15:26;;;;;;;4.92;4.35;;;;;;;13.32;74.59;97181.05;1738591;82;21414;-85
2022/10/10 09:18:07;;;;;;;6.35;4.20;;;;;;;13.37;75.83;97176.12;1756762;81;21063;-85
2022/10/10 09:20:53;;;;;;;6.60;4.55;;;;;;;13.41;75.83;97180.48;1755408;81;21318;-84
2022/10/10 09:23:35;;;;;;;6.78;4.20;;;;;;;13.44;73.47;97169.67;1733674;81;21024;-85
2022/10/10 09:26:16;;;;;;;4.30;2.58;;;;;;;13.56;73.14;97168.23;1732810;81;21038;-85
2022/10/10 09:29:05;;;;;;;5.70;3.62;;;;;;;13.67;72.68;97165.17;1743455;81;21008;-85
2022/10/10 09:31:41;;;;;;;7.03;4.05;;;;;;;13.75;72.85;97162.45;1718014;82;21031;-85
2022/10/10 09:34:31;;;;;;;4.83;4.28;;;;;;;13.85;72.05;97158.75;1738592;82;20995;-85
2022/10/10 09:36:59;;;;;;;4.37;3.98;;;;;;;13.95;72.42;97156.64;1718941;83;20929;-85
2022/10/10 09:39:48;;;;;;;4.12;3.72;;;;;;;14.03;71.92;97164.39;1750163;81;20963;-85
2022/10/10 09:42:16;;;;;;;3.92;3.60;;;;;;;14.11;70.28;97160.34;1744027;82;20986;-85
2022/10/10 09:44:42;;;;;;;4.25;3.85;;;;;;;14.17;70.17;97164.84;1741827;82;20964;-85
2022/10/10 09:47:12;;;;;;;4.08;3.65;;;;;;;14.26;69.05;97159.80;1741705;82;20962;-85
2022/10/10 09:49:38;;;;;;;6.35;3.83;;;;;;;14.35;67.84;97162.62;1749463;81;20942;-85
2022/10/10 09:52:29;;;;;;;6.83;3.98;;;;;;;14.44;70.75;97157.28;1721843;82;21096;-85
2022/10/10 09:55:03;;;;;;;4.10;3.70;;;;;;;14.49;68.17;97160.17;1737319;81;21355;-85
2022/10/10 09:57:37;;;;;;;4.28;3.87;;;;;;;14.57;67.31;97154.30;1734610;81;20994;-85
2022/10/10 10:00:22;;;;;;;6.10;4.40;;;;;;;14.64;69.14;97148.64;1737570;81;21367;-85
2022/10/10 10:03:11;;;;;;;4.80;4.00;;;;;;;14.68;71.11;97152.49;1756283;81;21027;-85
2022/10/10 10:05:38;;;;;;;4.55;4.15;;;;;;;14.66;71.79;97145.84;1734152;81;21327;-85
2022/10/10 10:08:04;;;;;;;6.75;4.37;;;;;;;14.66;72.38;97148.45;1746180;82;20993;-85
2022/10/10 10:10:34;;;;;;;4.85;4.37;;;;;;;14.65;73.70;97147.64;1716682;82;21432;-85
2022/10/10 10:12:59;;;;;;;6.05;4.20;;;;;;;14.60;72.06;97134.30;1737784;81;20983;-85
2022/10/10 10:15:28;;;;;;;5.50;4.80;;;;;;;14.74;71.19;97144.38;1717667;82;20965;-84
2022/10/10 10:18:23;;;;;;;6.35;4.87;;;;;;;14.80;69.73;97146.23;1725632;82;21668;-85
2022/10/10 10:20:53;;;;;;;5.95;5.20;;;;;;;14.89;70.57;97143.80;1706625;81;21444;-85
2022/10/10 10:23:32;;;;;;;7.83;5.22;;;;;;;14.94;71.11;97140.60;1733394;81;21028;-85
2022/10/10 10:26:05;;;;;;;8.25;5.60;;;;;;;14.97;70.14;97137.13;1736620;81;20997;-85
2022/10/10 10:28:33;;;;;;;6.75;5.28;;;;;;;15.03;69.72;97138.16;1755320;81;21002;-85
2022/10/10 10:30:58;;;;;;;8.05;5.58;;;;;;;15.09;70.13;97133.46;1739860;81;21009;-85
2022/10/10 10:34:00;;;;;;;7.05;5.03;;;;;;;15.16;70.24;97136.95;1740579;82;21051;-85
2022/10/10 10:36:49;;;;;;;7.97;5.55;;;;;;;15.21;71.73;97120.66;1743497;81;21104;-85
2022/10/10 10:39:36;;;;;;;7.47;5.30;;;;;;;15.24;70.58;97122.88;1756063;81;21001;-85
2022/10/10 10:42:23;;;;;;;6.65;5.17;;;;;;;15.27;70.69;97121.98;1750861;81;20942;-85
2022/10/10 10:45:16;;;;;;;6.92;5.15;;;;;;;15.33;70.91;97118.31;1697505;81;20952;-85
2022/10/10 10:47:53;;;;;;;7.67;5.58;;;;;;;15.34;69.75;97114.19;1724748;81;20948;-85
2022/10/10 10:50:42;;;;;;;7.67;5.47;;;;;;;15.38;69.02;97104.94;1749983;81;20963;-85
2022/10/10 10:53:25;;;;;;;6.80;5.45;;;;;;;15.48;71.43;97103.28;1697948;82;21058;-86
2022/10/10 10:55:57;;;;;;;7.40;5.55;;;;;;;15.53;69.45;97101.69;1724185;81;20948;-86
2022/10/10 10:58:53;;;;;;;6.85;5.30;;;;;;;15.60;69.03;97103.84;1740065;81;21054;-85
2022/10/10 11:01:45;;;;;;;7.55;5.22;;;;;;;15.68;69.81;97094.22;1740078;81;20965;-86
2022/10/10 11:04:35;;;;;;;9.18;5.72;;;;;;;15.77;67.59;97098.27;1740787;81;21282;-85
2022/10/10 11:07:09;;;;;;;7.50;4.70;;;;;;;15.84;69.70;97092.05;1715829;81;20941;-86
2022/10/10 11:09:37;;;;;;;8.20;5.45;;;;;;;15.88;70.44;97083.29;1745485;81;20967;-85
2022/10/10 11:12:31;;;;;;;7.78;5.33;;;;;;;15.95;70.44;97089.37;1740773;81;21001;-84
2022/10/10 11:15:04;;;;;;;8.18;5.08;;;;;;;16.00;68.80;97088.27;1736769;82;21028;-86
2022/10/10 11:17:56;;;;;;;8.75;5.47;;;;;;;16.09;67.63;97089.68;1743910;81;20961;-85
2022/10/10 11:20:40;;;;;;;7.45;5.62;;;;;;;16.16;67.04;97089.70;1740490;81;20977;-85
2022/10/10 11:23:20;;;;;;;8.10;5.45;;;;;;;16.19;66.45;97083.55;1739930;81;21378;-85
2022/10/10 11:25:53;;;;;;;7.55;5.45;;;;;;;16.29;66.83;97083.17;1738955;82;21028;-84
2022/10/10 11:28:39;;;;;;;7.42;5.50;;;;;;;16.35;67.12;97077.12;1738790;81;21334;-85
2022/10/10 11:31:09;;;;;;;9.15;6.25;;;;;;;16.42;69.37;97077.11;1740103;81;20937;-85
2022/10/10 11:33:39;;;;;;;8.55;5.03;;;;;;;16.42;68.81;97070.05;1735283;82;21016;-85
2022/10/10 11:36:17;;;;;;;10.28;6.37;;;;;;;16.43;68.86;97068.23;1691959;83;20996;-85
2022/10/10 11:38:58;;;;;;;6.60;5.35;;;;;;;16.43;66.39;97065.13;1714772;83;21060;-85
2022/10/10 11:41:47;;;;;;;7.87;5.65;;;;;;;16.49;67.37;97057.76;1738277;81;21058;-84
2022/10/10 11:44:42;;;;;;;8.08;5.10;;;;;;;16.58;68.58;97060.16;1747749;81;21352;-85
2022/10/10 11:47:37;;;;;;;7.83;5.37;;;;;;;16.61;68.78;97059.78;1728119;82;20929;-85
2022/10/10 11:50:25;;;;;;;6.83;6.12;;;;;;;16.64;68.54;97048.37;1680453;84;21012;-85
2022/10/10 11:52:56;;;;;;;7.72;6.12;;;;;;;16.67;67.92;97048.49;1714520;82;21053;-84
2022/10/10 11:55:44;;;;;;;6.72;5.15;;;;;;;16.72;67.50;97038.98;1745198;81;20994;-85
2022/10/10 11:58:15;;;;;;;8.60;5.80;;;;;;;16.76;67.99;97046.78;1727517;81;21066;-83
2022/10/10 12:00:51;;;;;;;9.03;6.15;;;;;;;16.77;66.27;97034.46;1726888;82;21352;-85